Data for 01/16/2008

Time Sea-Level Adjusted Pressure Absolute Pressure Temperature Relative Humidity Dew Point   
(mb) (inHg) (mb) (inHg) (C) (F) (%) (C) (F)
00:05 1023 30.21 852 25.16 -10.3 13.5 88 -11.9 10.5
00:10 1023 30.21 852 25.16 -10.3 13.5 87 -12 10.5
00:15 1023 30.21 852 25.16 -10.3 13.4 88 -11.9 10.6
00:20 1023 30.21 852 25.16 -10.4 13.4 88 -12 10.5
00:25 1023 30.21 852 25.16 -10.3 13.4 89 -11.9 10.7
00:30 1023 30.21 852 25.16 -10.3 13.5 88 -11.9 10.5
00:35 1023 30.21 852 25.16 -10.3 13.5 87 -12 10.3
00:40 1023 30.21 852 25.16 -10.3 13.5 87 -12.1 10.2
00:45 1023 30.21 852 25.16 -10.3 13.4 87 -12.1 10.3
00:50 1023 30.21 852 25.16 -10.5 13.2 88 -12.2 10.1
00:55 1023 30.21 852 25.16 -10.6 12.9 88 -12.3 9.9
01:00 1023 30.21 852 25.16 -10.6 12.8 88 -12.3 9.9
01:05 1023 30.21 852 25.16 -10.7 12.7 88 -12.4 9.7
01:10 1023 30.21 852 25.16 -10.8 12.5 88 -12.5 9.5
01:15 1023 30.21 852 25.16 -10.8 12.6 88 -12.4 9.7
01:20 1023 30.21 852 25.16 -10.7 12.7 87 -12.5 9.5
01:25 1023 30.21 852 25.16 -10.8 12.5 88 -12.5 9.5
01:30 1023 30.21 852 25.16 -11 12.3 87 -12.7 9.2
01:35 1023 30.21 852 25.16 -11.1 12 88 -12.7 9.1
01:40 1023 30.21 852 25.16 -11.2 11.8 88 -12.9 8.8
01:45 1023 30.21 852 25.16 -11.3 11.6 88 -13 8.7
01:50 1023 30.21 852 25.16 -11.5 11.3 88 -13.2 8.3
01:55 1023 30.21 852 25.16 -11.6 11 87 -13.3 8
02:00 1023 30.21 852 25.16 -11.6 11.2 87 -13.3 8
02:05 1023 30.21 852 25.16 -11.5 11.3 87 -13.2 8.2
02:10 1023 30.21 852 25.16 -11.4 11.4 87 -13.2 8.2
02:15 1023 30.21 852 25.16 -11.4 11.5 87 -13.2 8.2
02:20 1023 30.21 852 25.16 -11.2 11.8 86 -13.1 8.4
02:25 1023 30.21 852 25.16 -11.1 12 85 -13.1 8.4
02:30 1023 30.21 852 25.16 -11.1 12.1 85 -13.2 8.3
02:35 1023 30.21 852 25.16 -11 12.3 84 -13.1 8.4
02:40 1023 30.21 852 25.16 -10.9 12.3 84 -13.1 8.3
02:45 1023 30.21 852 25.16 -11.1 12.1 83 -13.3 8
02:50 1023 30.21 852 25.16 -11.2 11.9 83 -13.5 7.7
02:55 1023 30.21 852 25.16 -11.2 11.8 83 -13.6 7.6
03:00 1023 30.21 852 25.16 -11.3 11.6 83 -13.7 7.4
03:05 1023 30.21 852 25.16 -11.4 11.5 83 -13.8 7.2
03:10 1023 30.21 852 25.16 -11.4 11.4 82 -13.9 7
03:15 1023 30.21 852 25.16 -11.5 11.4 82 -13.9 7
03:20 1023 30.21 852 25.16 -11.5 11.4 82 -14 6.8
03:25 1023 30.21 852 25.16 -11.5 11.2 81 -14.1 6.6
03:30 1023 30.21 852 25.16 -11.6 11 82 -14.1 6.6
03:35 1023 30.21 852 25.16 -11.7 10.9 83 -14.1 6.7
03:40 1023 30.21 852 25.16 -11.8 10.9 82 -14.2 6.5
03:45 1023 30.21 852 25.16 -11.8 10.9 82 -14.2 6.4
03:50 1023 30.21 852 25.16 -11.8 10.7 81 -14.4 6
03:55 1023 30.21 852 25.16 -12.2 10.1 83 -14.5 5.9
04:00 1023 30.21 852 25.16 -12.4 9.7 83 -14.7 5.6
04:05 1023 30.21 852 25.16 -12.5 9.5 83 -14.8 5.4
04:10 1023 30.21 852 25.16 -12.7 9.1 82 -15.2 4.7
04:15 1023 30.21 852 25.16 -13.2 8.2 84 -15.4 4.2
04:20 1023 30.21 852 25.16 -13.5 7.8 85 -15.5 4
04:25 1023 30.21 853 25.19 -13.7 7.4 86 -15.5 4.1
04:30 1023 30.21 853 25.19 -13.7 7.4 86 -15.5 4.1
04:35 1023 30.21 853 25.19 -13.5 7.7 86 -15.4 4.3
04:40 1023 30.21 853 25.19 -13.3 8.1 86 -15.2 4.6
04:45 1023 30.21 853 25.19 -13.1 8.5 85 -15.2 4.7
04:50 1023 30.21 853 25.19 -13.2 8.3 86 -15.1 4.9
04:55 1023 30.21 853 25.19 -12.9 8.8 86 -14.8 5.4
05:00 1023 30.21 853 25.19 -12.7 9.2 86 -14.6 5.8
05:05 1023 30.21 853 25.19 -12.4 9.6 85 -14.5 5.9
05:10 1023 30.21 853 25.19 -12.3 9.9 84 -14.5 6
05:15 1023 30.21 853 25.19 -12.3 9.9 84 -14.5 5.9
05:20 1023 30.21 853 25.19 -12.3 9.8 83 -14.6 5.8
05:25 1023 30.21 853 25.19 -12.4 9.8 83 -14.7 5.6
05:30 1023 30.21 853 25.19 -12.5 9.6 82 -14.9 5.1
05:35 1023 30.21 853 25.19 -12.4 9.6 80 -15.2 4.6
05:40 1023 30.21 853 25.19 -12.4 9.7 79 -15.3 4.4
05:45 1023 30.21 853 25.19 -12.5 9.5 79 -15.5 4.1
05:50 1023 30.21 853 25.19 -12.8 8.9 79 -15.8 3.6
05:55 1023 30.21 853 25.19 -12.9 8.7 79 -15.9 3.4
06:00 1023 30.21 853 25.19 -12.9 8.9 78 -16 3.3
06:05 1023 30.21 853 25.19 -12.9 8.8 78 -16 3.1
06:10 1023 30.21 853 25.19 -12.8 9 76 -16.2 2.9
06:15 1023 30.21 853 25.19 -12.6 9.4 75 -16.2 2.9
06:20 1023 30.21 853 25.19 -12.4 9.7 73 -16.2 2.8
06:25 1024 30.24 853 25.19 -12.2 10 73 -16.2 2.9
06:30 1024 30.24 853 25.19 -12.2 10.1 72 -16.2 2.8
06:35 1024 30.24 853 25.19 -12.1 10.2 72 -16.3 2.7
06:40 1024 30.24 853 25.19 -12.1 10.2 72 -16.3 2.7
06:45 1024 30.24 853 25.19 -12.2 10.1 71 -16.4 2.4
06:50 1024 30.24 853 25.19 -12.2 10.1 70 -16.5 2.3
06:55 1024 30.24 853 25.19 -12.2 10.1 69 -16.7 2
07:00 1024 30.24 853 25.19 -12.1 10.2 70 -16.6 2.2
07:05 1024 30.24 853 25.19 -12.1 10.3 70 -16.5 2.3
07:10 1024 30.24 853 25.19 -12 10.5 69 -16.6 2.2
07:15 1024 30.24 853 25.19 -11.8 10.7 67 -16.7 1.9
07:20 1024 30.24 853 25.19 -11.9 10.7 68 -16.7 1.9
07:25 1024 30.24 853 25.19 -12 10.5 68 -16.8 1.8
07:30 1024 30.24 853 25.19 -11.9 10.5 67 -16.9 1.6
07:35 1024 30.24 853 25.19 -11.9 10.6 67 -16.9 1.6
07:40 1024 30.24 853 25.19 -11.9 10.6 66 -17 1.4
07:45 1024 30.24 853 25.19 -12 10.5 65 -17.3 0.9
07:50 1024 30.24 853 25.19 -12.1 10.2 67 -17.1 1.2
07:55 1024 30.24 853 25.19 -12.1 10.2 65 -17.4 0.8
08:00 1024 30.24 853 25.19 -12.3 9.8 66 -17.5 0.6
08:05 1024 30.24 853 25.19 -12.6 9.2 66 -17.7 0.1
08:10 1024 30.24 853 25.19 -12.6 9.2 66 -17.7 0.2
08:15 1024 30.24 853 25.19 -12.6 9.2 66 -17.8 -0
08:20 1024 30.24 853 25.19 -12.4 9.6 65 -17.8 0
08:25 1024 30.24 853 25.19 -12.2 10 65 -17.6 0.3
08:30 1024 30.24 853 25.19 -12.1 10.2 64 -17.5 0.5
08:35 1024 30.24 853 25.19 -12 10.5 64 -17.5 0.5
08:40 1024 30.24 853 25.19 -12 10.4 62 -17.9 -0.1
08:45 1024 30.24 853 25.19 -12.1 10.3 63 -17.8 -0.1
08:50 1024 30.24 853 25.19 -12 10.5 62 -17.8 0
08:55 1024 30.24 853 25.19 -11.9 10.5 63 -17.6 0.3
09:00 1024 30.24 853 25.19 -11.7 10.9 61 -17.9 -0.2
09:05 1024 30.24 853 25.19 -11.6 11.1 60 -18 -0.3
09:10 1024 30.24 853 25.19 -11.5 11.4 59 -18 -0.4
09:15 1024 30.24 853 25.19 -11.6 11.1 60 -17.8 -0.1
09:20 1024 30.24 853 25.19 -12 10.4 60 -18.2 -0.7
09:25 1024 30.24 853 25.19 -12 10.4 61 -18 -0.5
09:30 1024 30.24 853 25.19 -11.9 10.6 60 -18.1 -0.6
09:35 1024 30.24 853 25.19 -11.9 10.6 60 -18.2 -0.7
09:40 1024 30.24 853 25.19 -11.9 10.6 60 -18.2 -0.8
09:45 1024 30.24 853 25.19 -12.3 9.8 60 -18.5 -1.3
09:50 1024 30.24 853 25.19 -12.2 10 59 -18.7 -1.6
09:55 1024 30.24 853 25.19 -11.7 10.9 59 -18.3 -0.9
10:00 1024 30.24 853 25.19 -10.8 12.5 55 -18.2 -0.7
10:05 1024 30.24 853 25.19 -9.9 14.1 52 -18.1 -0.6
10:10 1024 30.24 853 25.19 -9.6 14.7 49 -18.4 -1.1
10:15 1024 30.24 853 25.19 -9.6 14.7 49 -18.5 -1.3
10:20 1024 30.24 853 25.19 -9.4 15.2 50 -17.9 -0.2
10:25 1024 30.24 853 25.19 -8.9 16 47 -18.3 -0.9
10:30 1024 30.24 853 25.19 -8.6 16.5 47 -17.9 -0.3
10:35 1024 30.24 853 25.19 -8.5 16.8 45 -18.5 -1.3
10:40 1024 30.24 853 25.19 -8.2 17.2 44 -18.6 -1.4
10:45 1024 30.24 853 25.19 -8.1 17.3 46 -17.9 -0.1
10:50 1024 30.24 853 25.19 -8 17.7 44 -18.1 -0.6
10:55 1024 30.24 853 25.19 -7.9 17.8 45 -17.8 -0
11:00 1024 30.24 853 25.19 -8.4 16.9 48 -17.6 0.4
11:05 1024 30.24 853 25.19 -9.2 15.4 51 -17.7 0.2
11:10 1024 30.24 853 25.19 -8.7 16.3 46 -18.5 -1.2
11:15 1024 30.24 853 25.19 -9 15.8 47 -18.5 -1.3
11:20 1024 30.24 853 25.19 -8.5 16.6 45 -18.4 -1.1
11:25 1024 30.24 853 25.19 -8.2 17.3 44 -18.4 -1.1
11:30 1024 30.24 853 25.19 -7.9 17.8 46 -17.6 0.3
11:35 1024 30.24 853 25.19 -7.7 18.2 45 -17.6 0.3
11:40 1024 30.24 853 25.19 -8.1 17.4 46 -17.7 0.2
11:45 1024 30.24 853 25.19 -8.9 16 46 -18.4 -1.1
11:50 1024 30.24 853 25.19 -8.1 17.4 43 -18.6 -1.4
11:55 1024 30.24 853 25.19 -7.4 18.7 44 -17.8 0
12:00 1023 30.21 853 25.19 -7.4 18.8 43 -17.9 -0.3
12:05 1023 30.21 853 25.19 -7.4 18.6 43 -17.9 -0.2
12:10 1023 30.21 853 25.19 -7.3 18.9 42 -18.1 -0.6
12:15 1023 30.21 853 25.19 -7.6 18.3 43 -18.1 -0.5
12:20 1023 30.21 852 25.16 -7.7 18.1 43 -18.3 -1
12:25 1023 30.21 852 25.16 -7.3 18.9 42 -18.1 -0.7
12:30 1023 30.21 852 25.16 -7.3 18.9 42 -18 -0.4
12:35 1023 30.21 852 25.16 -7.2 19 42 -18.1 -0.5
12:40 1023 30.21 852 25.16 -7.4 18.8 42 -18.2 -0.7
12:45 1023 30.21 852 25.16 -7.1 19.2 43 -17.8 -0.1
12:50 1023 30.21 852 25.16 -7.7 18.1 45 -17.8 -0
12:55 1023 30.21 852 25.16 -8.2 17.2 44 -18.5 -1.3
13:00 1023 30.21 852 25.16 -8.8 16.1 49 -17.8 -0.1
13:05 1023 30.21 852 25.16 -8.3 17 44 -18.6 -1.5
13:10 1023 30.21 852 25.16 -7.8 17.9 43 -18.2 -0.8
13:15 1022 30.18 852 25.16 -8.2 17.2 45 -18.3 -0.9
13:20 1022 30.18 852 25.16 -7.9 17.7 43 -18.4 -1.2
13:25 1022 30.18 851 25.13 -8 17.6 45 -18 -0.3
13:30 1022 30.18 851 25.13 -7.7 18.1 43 -18.1 -0.6
13:35 1022 30.18 851 25.13 -7.4 18.7 42 -18.3 -0.9
13:40 1022 30.18 851 25.13 -6.7 20 41 -17.9 -0.3
13:45 1022 30.18 851 25.13 -7.4 18.7 44 -17.7 0.2
13:50 1022 30.18 851 25.13 -7.5 18.5 44 -17.7 0.1
13:55 1022 30.18 851 25.13 -7.3 18.8 43 -17.9 -0.2
14:00 1022 30.18 851 25.13 -7.2 19 42 -17.9 -0.3
14:05 1022 30.18 851 25.13 -7 19.4 42 -17.7 0.1
14:10 1022 30.18 851 25.13 -6.7 19.9 40 -18.3 -1
14:15 1022 30.18 851 25.13 -6.7 20 39 -18.6 -1.4
14:20 1022 30.18 851 25.13 -6.3 20.6 36 -19.1 -2.3
14:25 1022 30.18 851 25.13 -7.1 19.3 42 -18.1 -0.5
14:30 1021 30.15 851 25.13 -7.5 18.5 41 -18.6 -1.5
14:35 1021 30.15 851 25.13 -6.7 20 39 -18.4 -1.2
14:40 1021 30.15 851 25.13 -6.5 20.3 39 -18.2 -0.8
14:45 1021 30.15 851 25.13 -6.4 20.4 38 -18.6 -1.5
14:50 1021 30.15 851 25.13 -6.7 19.9 42 -17.7 0.1
14:55 1021 30.15 850 25.1 -6.6 20.1 39 -18.5 -1.4
15:00 1021 30.15 850 25.1 -7.1 19.2 39 -19 -2.2
15:05 1021 30.15 850 25.1 -7.4 18.7 40 -18.8 -1.8
15:10 1021 30.15 850 25.1 -7 19.3 38 -19 -2.2
15:15 1021 30.15 850 25.1 -6.8 19.7 41 -18.1 -0.7
15:20 1021 30.15 850 25.1 -6.9 19.6 37 -19.2 -2.6
15:25 1021 30.15 850 25.1 -7 19.5 37 -19.3 -2.8
15:30 1021 30.15 850 25.1 -6.7 19.9 35 -19.7 -3.5
15:35 1021 30.15 850 25.1 -7.2 19 36 -19.8 -3.6
15:40 1021 30.15 850 25.1 -6.7 19.9 35 -19.7 -3.4
15:45 1021 30.15 850 25.1 -7.1 19.2 45 -17.1 1.3
15:50 1021 30.15 850 25.1 -8.4 16.9 47 -17.9 -0.2
15:55 1021 30.15 850 25.1 -8.3 17.2 46 -17.9 -0.1
16:00 1021 30.15 850 25.1 -8.9 16 49 -17.8 -0.1
16:05 1021 30.15 850 25.1 -10 14 51 -18.3 -1
16:10 1020 30.12 850 25.1 -10.6 12.9 53 -18.6 -1.4
16:15 1020 30.12 850 25.1 -10.8 12.6 53 -18.6 -1.5
16:20 1020 30.12 849 25.07 -11 12.2 53 -18.8 -1.8
16:25 1020 30.12 849 25.07 -10.9 12.4 52 -19 -2.1
16:30 1020 30.12 849 25.07 -10.9 12.5 52 -18.9 -1.9
16:35 1020 30.12 849 25.07 -10.8 12.6 52 -18.8 -1.9
16:40 1020 30.12 849 25.07 -10.7 12.7 51 -19 -2.3
16:45 1020 30.12 849 25.07 -10.6 12.9 52 -18.6 -1.4
16:50 1020 30.12 849 25.07 -10.4 13.3 52 -18.6 -1.5
16:55 1020 30.12 849 25.07 -10.3 13.5 49 -19 -2.1
17:00 1020 30.12 849 25.07 -10.2 13.6 50 -18.7 -1.6
17:05 1020 30.12 849 25.07 -10.4 13.2 50 -18.9 -2
17:10 1020 30.12 849 25.07 -10.3 13.5 49 -19.1 -2.4
17:15 1020 30.12 849 25.07 -10.2 13.6 51 -18.5 -1.3
17:20 1020 30.12 849 25.07 -10.2 13.7 51 -18.5 -1.2
17:25 1020 30.12 849 25.07 -10.6 12.9 53 -18.5 -1.4
17:30 1020 30.12 849 25.07 -10.8 12.6 51 -19.2 -2.5
17:35 1020 30.12 849 25.07 -11.1 11.9 56 -18.2 -0.8
17:40 1020 30.12 849 25.07 -11 12.2 57 -18 -0.4
17:45 1020 30.12 849 25.07 -11.4 11.4 59 -17.9 -0.2
17:50 1020 30.12 849 25.07 -11.8 10.7 61 -18 -0.4
17:55 1020 30.12 849 25.07 -12 10.5 62 -17.9 -0.3
18:00 1020 30.12 849 25.07 -11.8 10.7 61 -17.9 -0.3
18:05 1020 30.12 849 25.07 -11.7 11 60 -18 -0.4
18:10 1020 30.12 849 25.07 -11.6 11.1 60 -17.9 -0.3
18:15 1020 30.12 849 25.07 -11.6 11.1 58 -18.3 -1
18:20 1020 30.12 849 25.07 -11.8 10.8 58 -18.5 -1.4
18:25 1020 30.12 849 25.07 -11.5 11.3 57 -18.5 -1.3
18:30 1020 30.12 849 25.07 -11.6 11.1 55 -18.9 -2
18:35 1020 30.12 849 25.07 -11.5 11.2 58 -18.3 -0.9
18:40 1020 30.12 850 25.1 -11.3 11.7 59 -17.8 -0.1
18:45 1021 30.15 850 25.1 -11.4 11.5 60 -17.7 0.2
18:50 1021 30.15 850 25.1 -11.4 11.5 65 -16.7 2
18:55 1021 30.15 850 25.1 -11.5 11.4 65 -16.9 1.7
19:00 1021 30.15 850 25.1 -11.5 11.3 64 -17 1.3
19:05 1021 30.15 850 25.1 -11.2 11.8 61 -17.4 0.7
19:10 1021 30.15 850 25.1 -11.2 11.9 62 -17.1 1.2
19:15 1021 30.15 850 25.1 -11.2 11.9 64 -16.7 2
19:20 1021 30.15 850 25.1 -11.2 11.9 64 -16.8 1.8
19:25 1021 30.15 850 25.1 -11 12.2 63 -16.7 1.9
19:30 1021 30.15 850 25.1 -10.8 12.6 61 -16.8 1.8
19:35 1021 30.15 850 25.1 -10.6 13 62 -16.5 2.3
19:40 1021 30.15 850 25.1 -10.4 13.2 61 -16.5 2.2
19:45 1021 30.15 850 25.1 -10.3 13.5 59 -16.9 1.6
19:50 1021 30.15 850 25.1 -10.1 13.9 55 -17.4 0.7
19:55 1021 30.15 850 25.1 -9.7 14.5 53 -17.7 0.1
20:00 1021 30.15 850 25.1 -9.7 14.5 59 -16.2 2.8
20:05 1021 30.15 850 25.1 -10 14 64 -15.7 3.8
20:10 1021 30.15 850 25.1 -10.1 13.8 62 -16 3.1
20:15 1020 30.12 850 25.1 -10 14 61 -16.1 3.1
20:20 1020 30.12 850 25.1 -10.1 13.9 63 -15.9 3.5
20:25 1020 30.12 850 25.1 -9.8 14.3 60 -16.2 2.8
20:30 1020 30.12 849 25.07 -9.6 14.8 60 -15.9 3.4
20:35 1020 30.12 849 25.07 -9.4 15.1 60 -15.7 3.7
20:40 1020 30.12 849 25.07 -9.7 14.6 58 -16.4 2.5
20:45 1020 30.12 849 25.07 -9.6 14.7 57 -16.7 2
20:50 1020 30.12 849 25.07 -9.4 15.2 56 -16.6 2.1
20:55 1020 30.12 849 25.07 -9 15.8 56 -16.2 2.8
21:00 1020 30.12 849 25.07 -8.7 16.3 54 -16.4 2.5
21:05 1020 30.12 849 25.07 -8.7 16.4 55 -16.1 3.1
21:10 1020 30.12 849 25.07 -8.8 16.2 57 -15.8 3.5
21:15 1020 30.12 849 25.07 -8.8 16.1 58 -15.7 3.8
21:20 1020 30.12 849 25.07 -8.9 16.1 59 -15.4 4.3
21:25 1020 30.12 849 25.07 -9 15.9 61 -15.2 4.6
21:30 1020 30.12 849 25.07 -9 15.7 61 -15.3 4.5
21:35 1020 30.12 849 25.07 -9.2 15.5 63 -15 5
21:40 1020 30.12 849 25.07 -9.3 15.4 64 -14.9 5.2
21:45 1020 30.12 849 25.07 -9.3 15.3 63 -15.2 4.7
21:50 1020 30.12 849 25.07 -9.2 15.5 61 -15.4 4.2
21:55 1020 30.12 849 25.07 -9 15.8 61 -15.1 4.8
22:00 1020 30.12 849 25.07 -9 15.9 63 -14.8 5.4
22:05 1020 30.12 849 25.07 -9.2 15.5 65 -14.7 5.6
22:10 1020 30.12 849 25.07 -9.4 15.1 64 -15 5
22:15 1020 30.12 849 25.07 -9.4 15 65 -14.9 5.2
22:20 1020 30.12 849 25.07 -9.4 15 65 -14.9 5.2
22:25 1020 30.12 849 25.07 -9.4 15 59 -15.9 3.3
22:30 1020 30.12 849 25.07 -9.4 15.2 61 -15.6 3.9
22:35 1020 30.12 849 25.07 -9.2 15.4 56 -16.5 2.2
22:40 1020 30.12 849 25.07 -9.3 15.3 57 -16.3 2.6
22:45 1020 30.12 849 25.07 -9.2 15.5 59 -15.8 3.6
22:50 1020 30.12 849 25.07 -9.1 15.6 58 -15.9 3.3
22:55 1020 30.12 849 25.07 -9.1 15.7 57 -16 3.2
23:00 1020 30.12 849 25.07 -9.1 15.6 59 -15.7 3.7
23:05 1020 30.12 849 25.07 -9.1 15.7 59 -15.6 4
23:10 1020 30.12 849 25.07 -9 15.8 58 -15.8 3.5
23:15 1020 30.12 849 25.07 -8.9 15.9 57 -16 3.1
23:20 1020 30.12 849 25.07 -9 15.8 58 -15.8 3.5
23:25 1020 30.12 849 25.07 -9.1 15.6 58 -15.9 3.3
23:30 1020 30.12 849 25.07 -9.4 15.2 59 -16 3.1
23:35 1019 30.09 849 25.07 -9.3 15.3 61 -15.4 4.2
23:40 1019 30.09 849 25.07 -9.3 15.2 65 -14.8 5.3
23:45 1019 30.09 849 25.07 -9.6 14.7 66 -14.8 5.4
23:50 1019 30.09 848 25.04 -9.8 14.4 68 -14.5 5.8
23:55 1019 30.09 849 25.07 -9.5 14.8 67 -14.5 5.9
24:00 1019 30.09 849 25.07 -9.4 15.1 66 -14.5 5.8